sensor_id;sensor_type;location;lat;lon;timestamp;temperature;humidity
13223;DHT22;6676;45.192;5.722;2023-01-01T01:29:19;13.20;99.90
13223;DHT22;6676;45.192;5.722;2023-01-01T01:32:11;13.30;99.90
13223;DHT22;6676;45.192;5.722;2023-01-01T01:35:06;13.30;99.90
13223;DHT22;6676;45.192;5.722;2023-01-01T01:37:58;13.10;99.90
13223;DHT22;6676;45.192;5.722;2023-01-01T01:40:49;12.70;99.90
13223;DHT22;6676;45.192;5.722;2023-01-01T01:43:55;12.40;99.90
13223;DHT22;6676;45.192;5.722;2023-01-01T01:49:32;12.00;99.90
13223;DHT22;6676;45.192;5.722;2023-01-01T02:14:27;11.60;99.90
13223;DHT22;6676;45.192;5.722;2023-01-01T02:17:21;11.50;99.90
13223;DHT22;6676;45.192;5.722;2023-01-01T02:20:23;11.50;99.90
13223;DHT22;6676;45.192;5.722;2023-01-01T02:26:57;11.50;99.90
13223;DHT22;6676;45.192;5.722;2023-01-01T02:29:52;11.40;99.90
13223;DHT22;6676;45.192;5.722;2023-01-01T02:32:49;11.40;99.90
13223;DHT22;6676;45.192;5.722;2023-01-01T02:35:44;11.40;99.90
13223;DHT22;6676;45.192;5.722;2023-01-01T02:38:39;11.40;99.90
13223;DHT22;6676;45.192;5.722;2023-01-01T02:41:37;11.30;99.90
13223;DHT22;6676;45.192;5.722;2023-01-01T02:47:18;11.20;99.90
13223;DHT22;6676;45.192;5.722;2023-01-01T02:50:12;11.20;99.90
13223;DHT22;6676;45.192;5.722;2023-01-01T02:53:13;11.10;99.90
13223;DHT22;6676;45.192;5.722;2023-01-01T02:56:07;11.00;99.90
13223;DHT22;6676;45.192;5.722;2023-01-01T02:59:07;11.00;99.90
13223;DHT22;6676;45.192;5.722;2023-01-01T03:02:31;11.00;99.90
13223;DHT22;6676;45.192;5.722;2023-01-01T03:08:09;10.90;99.90
13223;DHT22;6676;45.192;5.722;2023-01-01T03:11:06;10.90;99.90
13223;DHT22;6676;45.192;5.722;2023-01-01T03:17:20;10.80;99.90
13223;DHT22;6676;45.192;5.722;2023-01-01T03:20:18;10.70;99.90
13223;DHT22;6676;45.192;5.722;2023-01-01T03:23:13;10.70;99.90
13223;DHT22;6676;45.192;5.722;2023-01-01T03:26:08;10.60;99.90
13223;DHT22;6676;45.192;5.722;2023-01-01T03:29:02;10.60;99.90
13223;DHT22;6676;45.192;5.722;2023-01-01T03:31:56;10.60;99.90
13223;DHT22;6676;45.192;5.722;2023-01-01T03:34:52;10.60;99.90
13223;DHT22;6676;45.192;5.722;2023-01-01T03:37:46;10.60;99.90
13223;DHT22;6676;45.192;5.722;2023-01-01T03:40:39;10.60;99.90
13223;DHT22;6676;45.192;5.722;2023-01-01T03:43:38;10.50;99.90
13223;DHT22;6676;45.192;5.722;2023-01-01T03:46:33;10.50;99.90
13223;DHT22;6676;45.192;5.722;2023-01-01T03:52:59;10.50;99.90
13223;DHT22;6676;45.192;5.722;2023-01-01T03:55:52;10.50;99.90
13223;DHT22;6676;45.192;5.722;2023-01-01T03:58:48;10.40;99.90
13223;DHT22;6676;45.192;5.722;2023-01-01T04:01:43;10.40;99.90
13223;DHT22;6676;45.192;5.722;2023-01-01T04:19:02;10.40;99.90
13223;DHT22;6676;45.192;5.722;2023-01-01T04:21:56;10.30;99.90
13223;DHT22;6676;45.192;5.722;2023-01-01T04:24:47;10.30;99.90
13223;DHT22;6676;45.192;5.722;2023-01-01T04:27:39;10.30;99.90
13223;DHT22;6676;45.192;5.722;2023-01-01T04:30:31;10.30;99.90
13223;DHT22;6676;45.192;5.722;2023-01-01T04:36:08;10.40;99.90
13223;DHT22;6676;45.192;5.722;2023-01-01T04:39:00;10.40;99.90
13223;DHT22;6676;45.192;5.722;2023-01-01T04:41:51;10.30;99.90
13223;DHT22;6676;45.192;5.722;2023-01-01T04:44:43;10.30;99.90
13223;DHT22;6676;45.192;5.722;2023-01-01T04:47:35;10.30;99.90
13223;DHT22;6676;45.192;5.722;2023-01-01T04:50:29;10.30;99.90
13223;DHT22;6676;45.192;5.722;2023-01-01T04:53:21;10.30;99.90
13223;DHT22;6676;45.192;5.722;2023-01-01T04:59:52;10.40;99.90
13223;DHT22;6676;45.192;5.722;2023-01-01T05:05:26;10.50;99.90
13223;DHT22;6676;45.192;5.722;2023-01-01T05:08:18;10.50;99.90
13223;DHT22;6676;45.192;5.722;2023-01-01T05:11:11;10.50;99.90
13223;DHT22;6676;45.192;5.722;2023-01-01T05:14:04;10.50;99.90
13223;DHT22;6676;45.192;5.722;2023-01-01T05:16:56;10.40;99.90
13223;DHT22;6676;45.192;5.722;2023-01-01T05:38:13;10.00;99.90
13223;DHT22;6676;45.192;5.722;2023-01-01T05:41:07;10.00;99.90
13223;DHT22;6676;45.192;5.722;2023-01-01T05:44:00;10.00;99.90
13223;DHT22;6676;45.192;5.722;2023-01-01T06:00:29;9.90;99.90
13223;DHT22;6676;45.192;5.722;2023-01-01T06:03:21;9.90;99.90
13223;DHT22;6676;45.192;5.722;2023-01-01T06:08:54;9.80;99.90
13223;DHT22;6676;45.192;5.722;2023-01-01T06:15:00;10.00;99.90
13223;DHT22;6676;45.192;5.722;2023-01-01T06:17:52;10.10;99.90
13223;DHT22;6676;45.192;5.722;2023-01-01T06:24:00;10.20;99.90
13223;DHT22;6676;45.192;5.722;2023-01-01T06:26:52;10.30;99.90
13223;DHT22;6676;45.192;5.722;2023-01-01T06:29:43;10.40;99.90
13223;DHT22;6676;45.192;5.722;2023-01-01T06:32:35;10.40;99.90
13223;DHT22;6676;45.192;5.722;2023-01-01T06:35:27;10.20;99.90
13223;DHT22;6676;45.192;5.722;2023-01-01T06:41:03;10.00;99.90
13223;DHT22;6676;45.192;5.722;2023-01-01T06:43:58;9.90;99.90
13223;DHT22;6676;45.192;5.722;2023-01-01T06:46:51;9.90;99.90
13223;DHT22;6676;45.192;5.722;2023-01-01T06:52:31;9.90;99.90
13223;DHT22;6676;45.192;5.722;2023-01-01T06:55:23;9.90;99.90
13223;DHT22;6676;45.192;5.722;2023-01-01T07:01:36;9.90;99.90
13223;DHT22;6676;45.192;5.722;2023-01-01T07:04:30;9.80;99.90
13223;DHT22;6676;45.192;5.722;2023-01-01T07:07:22;9.80;99.90
13223;DHT22;6676;45.192;5.722;2023-01-01T07:13:08;9.70;99.90
13223;DHT22;6676;45.192;5.722;2023-01-01T07:16:00;9.60;99.90
13223;DHT22;6676;45.192;5.722;2023-01-01T07:18:54;9.70;99.90
13223;DHT22;6676;45.192;5.722;2023-01-01T07:21:51;9.60;99.90
13223;DHT22;6676;45.192;5.722;2023-01-01T07:24:43;9.80;99.90
13223;DHT22;6676;45.192;5.722;2023-01-01T07:27:34;9.80;99.90
13223;DHT22;6676;45.192;5.722;2023-01-01T07:30:26;9.70;99.90
13223;DHT22;6676;45.192;5.722;2023-01-01T07:36:03;9.60;99.90
13223;DHT22;6676;45.192;5.722;2023-01-01T07:38:55;9.60;99.90
13223;DHT22;6676;45.192;5.722;2023-01-01T07:44:42;9.80;99.90
13223;DHT22;6676;45.192;5.722;2023-01-01T07:47:35;9.80;99.90
13223;DHT22;6676;45.192;5.722;2023-01-01T07:50:29;9.80;99.90
13223;DHT22;6676;45.192;5.722;2023-01-01T07:56:08;9.80;99.90
13223;DHT22;6676;45.192;5.722;2023-01-01T07:59:01;9.80;99.90
13223;DHT22;6676;45.192;5.722;2023-01-01T08:01:53;9.80;99.90
13223;DHT22;6676;45.192;5.722;2023-01-01T08:04:45;9.70;99.90
13223;DHT22;6676;45.192;5.722;2023-01-01T08:07:41;9.80;99.90
13223;DHT22;6676;45.192;5.722;2023-01-01T08:10:34;10.10;99.90
13223;DHT22;6676;45.192;5.722;2023-01-01T08:13:25;10.30;99.90
13223;DHT22;6676;45.192;5.722;2023-01-01T08:16:17;10.30;99.90
13223;DHT22;6676;45.192;5.722;2023-01-01T08:19:08;10.30;99.90
13223;DHT22;6676;45.192;5.722;2023-01-01T08:22:02;10.30;99.90
13223;DHT22;6676;45.192;5.722;2023-01-01T08:24:55;10.30;99.90
13223;DHT22;6676;45.192;5.722;2023-01-01T08:27:48;10.40;99.90
13223;DHT22;6676;45.192;5.722;2023-01-01T08:30:40;10.70;99.90
13223;DHT22;6676;45.192;5.722;2023-01-01T08:33:32;10.90;99.90
13223;DHT22;6676;45.192;5.722;2023-01-01T08:36:24;11.00;99.90
13223;DHT22;6676;45.192;5.722;2023-01-01T08:39:16;11.10;99.90
13223;DHT22;6676;45.192;5.722;2023-01-01T08:42:08;11.10;99.90
13223;DHT22;6676;45.192;5.722;2023-01-01T08:45:01;11.20;99.90
13223;DHT22;6676;45.192;5.722;2023-01-01T08:47:53;11.20;99.90
13223;DHT22;6676;45.192;5.722;2023-01-01T08:50:51;11.20;99.90
13223;DHT22;6676;45.192;5.722;2023-01-01T08:53:44;11.30;99.90
13223;DHT22;6676;45.192;5.722;2023-01-01T08:56:37;11.40;99.90
13223;DHT22;6676;45.192;5.722;2023-01-01T08:59:29;11.60;99.90
13223;DHT22;6676;45.192;5.722;2023-01-01T09:02:21;11.70;99.90
13223;DHT22;6676;45.192;5.722;2023-01-01T09:05:14;11.70;99.90
13223;DHT22;6676;45.192;5.722;2023-01-01T09:08:05;11.90;99.90
13223;DHT22;6676;45.192;5.722;2023-01-01T09:10:59;12.00;99.90
13223;DHT22;6676;45.192;5.722;2023-01-01T09:13:51;12.10;99.90
13223;DHT22;6676;45.192;5.722;2023-01-01T09:16:42;12.20;99.90
13223;DHT22;6676;45.192;5.722;2023-01-01T09:19:34;12.30;99.90
13223;DHT22;6676;45.192;5.722;2023-01-01T09:22:25;12.20;99.90
13223;DHT22;6676;45.192;5.722;2023-01-01T09:25:17;12.20;99.90
13223;DHT22;6676;45.192;5.722;2023-01-01T09:28:11;12.20;99.90
13223;DHT22;6676;45.192;5.722;2023-01-01T09:31:02;12.30;99.90
13223;DHT22;6676;45.192;5.722;2023-01-01T09:33:55;12.30;99.90
13223;DHT22;6676;45.192;5.722;2023-01-01T09:36:46;12.30;99.90
13223;DHT22;6676;45.192;5.722;2023-01-01T09:39:38;12.30;99.90
13223;DHT22;6676;45.192;5.722;2023-01-01T09:42:34;12.40;99.90
13223;DHT22;6676;45.192;5.722;2023-01-01T09:45:28;12.60;99.90
13223;DHT22;6676;45.192;5.722;2023-01-01T09:48:21;12.70;99.90
13223;DHT22;6676;45.192;5.722;2023-01-01T09:51:15;12.70;99.90
13223;DHT22;6676;45.192;5.722;2023-01-01T09:54:11;12.80;99.90
13223;DHT22;6676;45.192;5.722;2023-01-01T09:57:05;12.90;99.90
13223;DHT22;6676;45.192;5.722;2023-01-01T10:00:00;13.00;99.90
13223;DHT22;6676;45.192;5.722;2023-01-01T10:06:04;13.10;99.90
13223;DHT22;6676;45.192;5.722;2023-01-01T10:09:06;13.10;99.90
13223;DHT22;6676;45.192;5.722;2023-01-01T10:12:01;13.20;99.90
13223;DHT22;6676;45.192;5.722;2023-01-01T10:14:56;13.20;99.90
13223;DHT22;6676;45.192;5.722;2023-01-01T10:17:50;13.40;99.90
13223;DHT22;6676;45.192;5.722;2023-01-01T10:20:45;13.60;99.90
13223;DHT22;6676;45.192;5.722;2023-01-01T10:23:39;13.80;99.90
13223;DHT22;6676;45.192;5.722;2023-01-01T10:29:15;13.70;99.90
13223;DHT22;6676;45.192;5.722;2023-01-01T10:32:18;13.70;99.90
13223;DHT22;6676;45.192;5.722;2023-01-01T10:35:15;13.80;99.90
13223;DHT22;6676;45.192;5.722;2023-01-01T10:38:05;13.90;99.90
13223;DHT22;6676;45.192;5.722;2023-01-01T10:41:00;14.00;99.90
13223;DHT22;6676;45.192;5.722;2023-01-01T10:43:52;14.10;99.90
13223;DHT22;6676;45.192;5.722;2023-01-01T10:46:46;14.20;99.90
13223;DHT22;6676;45.192;5.722;2023-01-01T10:49:53;14.30;99.90
13223;DHT22;6676;45.192;5.722;2023-01-01T10:52:54;14.40;99.90
13223;DHT22;6676;45.192;5.722;2023-01-01T10:55:39;14.50;99.90
13223;DHT22;6676;45.192;5.722;2023-01-01T11:01:36;14.80;99.90
13223;DHT22;6676;45.192;5.722;2023-01-01T11:04:27;15.00;99.90
13223;DHT22;6676;45.192;5.722;2023-01-01T11:07:23;15.10;99.90
13223;DHT22;6676;45.192;5.722;2023-01-01T11:10:19;15.20;99.90
13223;DHT22;6676;45.192;5.722;2023-01-01T11:13:17;15.20;99.90
13223;DHT22;6676;45.192;5.722;2023-01-01T11:16:10;15.30;99.90
13223;DHT22;6676;45.192;5.722;2023-01-01T11:19:03;15.30;99.90
13223;DHT22;6676;45.192;5.722;2023-01-01T11:21:55;15.40;99.90
13223;DHT22;6676;45.192;5.722;2023-01-01T11:24:48;15.40;99.90
13223;DHT22;6676;45.192;5.722;2023-01-01T11:27:41;15.60;99.90
13223;DHT22;6676;45.192;5.722;2023-01-01T11:30:33;15.60;99.90
13223;DHT22;6676;45.192;5.722;2023-01-01T11:33:26;15.70;99.90
13223;DHT22;6676;45.192;5.722;2023-01-01T11:36:25;15.90;99.90
13223;DHT22;6676;45.192;5.722;2023-01-01T11:39:22;15.80;99.90
13223;DHT22;6676;45.192;5.722;2023-01-01T11:42:21;15.70;99.90
13223;DHT22;6676;45.192;5.722;2023-01-01T11:45:17;15.60;99.90
13223;DHT22;6676;45.192;5.722;2023-01-01T11:48:13;15.60;99.90
13223;DHT22;6676;45.192;5.722;2023-01-01T11:53:48;15.70;99.90
13223;DHT22;6676;45.192;5.722;2023-01-01T11:56:39;15.80;99.90
13223;DHT22;6676;45.192;5.722;2023-01-01T11:59:35;15.90;99.90
13223;DHT22;6676;45.192;5.722;2023-01-01T12:02:29;16.00;99.90
13223;DHT22;6676;45.192;5.722;2023-01-01T12:05:23;15.90;99.90
13223;DHT22;6676;45.192;5.722;2023-01-01T12:08:20;16.00;99.90
13223;DHT22;6676;45.192;5.722;2023-01-01T12:13:56;16.10;99.90
13223;DHT22;6676;45.192;5.722;2023-01-01T12:19:29;16.20;99.90
13223;DHT22;6676;45.192;5.722;2023-01-01T12:22:21;16.40;99.90
13223;DHT22;6676;45.192;5.722;2023-01-01T12:25:15;16.50;99.90
13223;DHT22;6676;45.192;5.722;2023-01-01T12:28:14;16.80;99.90
13223;DHT22;6676;45.192;5.722;2023-01-01T12:31:11;16.90;99.90
13223;DHT22;6676;45.192;5.722;2023-01-01T12:34:08;17.30;99.90
13223;DHT22;6676;45.192;5.722;2023-01-01T12:37:03;17.60;99.90
13223;DHT22;6676;45.192;5.722;2023-01-01T12:42:51;17.90;99.90
13223;DHT22;6676;45.192;5.722;2023-01-01T12:45:57;17.90;99.90
13223;DHT22;6676;45.192;5.722;2023-01-01T12:51:45;18.00;99.90
13223;DHT22;6676;45.192;5.722;2023-01-01T12:54:47;18.00;99.90
13223;DHT22;6676;45.192;5.722;2023-01-01T12:57:39;18.00;99.90
13223;DHT22;6676;45.192;5.722;2023-01-01T13:00:32;17.90;99.90
13223;DHT22;6676;45.192;5.722;2023-01-01T13:06:07;17.50;99.90
13223;DHT22;6676;45.192;5.722;2023-01-01T13:09:03;17.40;99.90
13223;DHT22;6676;45.192;5.722;2023-01-01T13:11:58;17.30;99.90
13223;DHT22;6676;45.192;5.722;2023-01-01T13:14:49;17.10;99.90
13223;DHT22;6676;45.192;5.722;2023-01-01T13:17:40;17.10;99.90
13223;DHT22;6676;45.192;5.722;2023-01-01T13:20:35;17.30;99.90
13223;DHT22;6676;45.192;5.722;2023-01-01T13:23:42;17.30;99.90
13223;DHT22;6676;45.192;5.722;2023-01-01T13:26:39;17.50;99.90
13223;DHT22;6676;45.192;5.722;2023-01-01T13:32:15;17.90;99.90
13223;DHT22;6676;45.192;5.722;2023-01-01T13:35:16;17.80;99.90
13223;DHT22;6676;45.192;5.722;2023-01-01T13:44:18;17.60;99.90
13223;DHT22;6676;45.192;5.722;2023-01-01T13:47:17;17.60;99.90
13223;DHT22;6676;45.192;5.722;2023-01-01T13:50:10;17.70;99.90
13223;DHT22;6676;45.192;5.722;2023-01-01T13:59:33;17.80;99.90
13223;DHT22;6676;45.192;5.722;2023-01-01T14:18:12;18.10;99.90
13223;DHT22;6676;45.192;5.722;2023-01-01T14:21:07;18.50;99.90
13223;DHT22;6676;45.192;5.722;2023-01-01T14:24:02;18.70;99.90
13223;DHT22;6676;45.192;5.722;2023-01-01T14:26:54;19.00;99.90
13223;DHT22;6676;45.192;5.722;2023-01-01T14:32:30;19.30;99.90
13223;DHT22;6676;45.192;5.722;2023-01-01T14:35:22;19.40;99.90
13223;DHT22;6676;45.192;5.722;2023-01-01T14:38:22;19.40;99.90
13223;DHT22;6676;45.192;5.722;2023-01-01T14:44:01;19.60;99.90
13223;DHT22;6676;45.192;5.722;2023-01-01T14:46:52;19.50;99.90
13223;DHT22;6676;45.192;5.722;2023-01-01T14:52:24;19.50;99.90
13223;DHT22;6676;45.192;5.722;2023-01-01T14:55:19;19.50;99.90
13223;DHT22;6676;45.192;5.722;2023-01-01T14:58:15;19.50;99.90
13223;DHT22;6676;45.192;5.722;2023-01-01T15:03:57;19.60;99.10
13223;DHT22;6676;45.192;5.722;2023-01-01T15:06:54;19.50;98.60
13223;DHT22;6676;45.192;5.722;2023-01-01T15:12:26;19.50;97.60
13223;DHT22;6676;45.192;5.722;2023-01-01T15:15:43;19.50;97.40
13223;DHT22;6676;45.192;5.722;2023-01-01T15:18:42;19.40;96.70
13223;DHT22;6676;45.192;5.722;2023-01-01T15:21:36;19.50;96.30
13223;DHT22;6676;45.192;5.722;2023-01-01T15:24:30;19.40;95.80
13223;DHT22;6676;45.192;5.722;2023-01-01T15:27:24;19.50;95.80
13223;DHT22;6676;45.192;5.722;2023-01-01T15:33:08;19.40;95.40
13223;DHT22;6676;45.192;5.722;2023-01-01T15:36:00;19.40;95.20
13223;DHT22;6676;45.192;5.722;2023-01-01T15:38:53;19.30;95.60
13223;DHT22;6676;45.192;5.722;2023-01-01T15:41:45;19.30;94.80
13223;DHT22;6676;45.192;5.722;2023-01-01T15:44:37;19.30;94.80
13223;DHT22;6676;45.192;5.722;2023-01-01T15:47:28;19.20;95.00
13223;DHT22;6676;45.192;5.722;2023-01-01T15:50:24;19.20;94.60
13223;DHT22;6676;45.192;5.722;2023-01-01T15:53:18;18.90;99.90
13223;DHT22;6676;45.192;5.722;2023-01-01T15:56:11;18.30;99.90
13223;DHT22;6676;45.192;5.722;2023-01-01T15:59:04;17.50;99.90
13223;DHT22;6676;45.192;5.722;2023-01-01T16:02:13;17.00;99.90
13223;DHT22;6676;45.192;5.722;2023-01-01T16:05:12;16.60;99.90
13223;DHT22;6676;45.192;5.722;2023-01-01T16:08:05;16.40;99.90
13223;DHT22;6676;45.192;5.722;2023-01-01T16:10:56;16.20;99.90
13223;DHT22;6676;45.192;5.722;2023-01-01T16:13:47;16.10;99.90
13223;DHT22;6676;45.192;5.722;2023-01-01T16:16:41;16.00;99.90
13223;DHT22;6676;45.192;5.722;2023-01-01T16:19:32;15.80;99.90
13223;DHT22;6676;45.192;5.722;2023-01-01T16:22:23;15.70;99.90
13223;DHT22;6676;45.192;5.722;2023-01-01T16:25:18;15.70;99.90
13223;DHT22;6676;45.192;5.722;2023-01-01T16:28:10;15.60;99.90
13223;DHT22;6676;45.192;5.722;2023-01-01T16:31:02;15.70;99.90
13223;DHT22;6676;45.192;5.722;2023-01-01T16:33:54;15.70;99.90
13223;DHT22;6676;45.192;5.722;2023-01-01T16:36:46;15.70;99.90
13223;DHT22;6676;45.192;5.722;2023-01-01T16:39:37;15.80;99.90
13223;DHT22;6676;45.192;5.722;2023-01-01T16:42:28;16.00;99.90
13223;DHT22;6676;45.192;5.722;2023-01-01T23:36:25;18.10;68.40
13223;DHT22;6676;45.192;5.722;2023-01-01T23:42:04;18.00;68.40
13223;DHT22;6676;45.192;5.722;2023-01-01T23:45:01;18.00;68.50
13223;DHT22;6676;45.192;5.722;2023-01-01T23:47:59;18.00;68.70
13223;DHT22;6676;45.192;5.722;2023-01-01T23:51:00;18.00;68.30
13223;DHT22;6676;45.192;5.722;2023-01-01T23:53:51;18.00;67.90
13223;DHT22;6676;45.192;5.722;2023-01-01T23:56:44;18.00;67.40
